sensor_id;sensor_type;location;lat;lon;timestamp;pressure;altitude;pressure_sealevel;temperature;humidity
11468;BME280;5790;42.762;23.430;2024-01-30T00:02:13;76233.28;;;-142.66;68.59
11468;BME280;5790;42.762;23.430;2024-01-30T00:04:40;76245.53;;;-142.66;68.32
11468;BME280;5790;42.762;23.430;2024-01-30T00:07:08;76235.31;;;-142.66;68.76
11468;BME280;5790;42.762;23.430;2024-01-30T00:09:35;76247.56;;;-142.66;67.39
11468;BME280;5790;42.762;23.430;2024-01-30T00:12:02;76235.31;;;-142.66;66.94
11468;BME280;5790;42.762;23.430;2024-01-30T00:14:30;76235.31;;;-142.66;66.67
11468;BME280;5790;42.762;23.430;2024-01-30T00:16:57;76233.28;;;-142.66;66.58
11468;BME280;5790;42.762;23.430;2024-01-30T00:19:24;76235.31;;;-142.66;66.60
11468;BME280;5790;42.762;23.430;2024-01-30T00:21:51;76241.44;;;-142.66;66.19
11468;BME280;5790;42.762;23.430;2024-01-30T00:24:19;76221.00;;;-142.66;66.29
11468;BME280;5790;42.762;23.430;2024-01-30T00:26:46;76235.31;;;-142.66;65.93
11468;BME280;5790;42.762;23.430;2024-01-30T00:29:13;76239.41;;;-142.66;66.10
11468;BME280;5790;42.762;23.430;2024-01-30T00:31:45;76235.31;;;-142.66;66.21
11468;BME280;5790;42.762;23.430;2024-01-30T00:34:12;76235.31;;;-142.66;66.44
11468;BME280;5790;42.762;23.430;2024-01-30T00:36:39;76233.28;;;-142.66;66.18
11468;BME280;5790;42.762;23.430;2024-01-30T00:39:06;76218.97;;;-142.66;65.98
11468;BME280;5790;42.762;23.430;2024-01-30T00:41:36;76208.75;;;-142.66;65.41
11468;BME280;5790;42.762;23.430;2024-01-30T00:44:03;76206.72;;;-142.66;65.37
11468;BME280;5790;42.762;23.430;2024-01-30T00:46:30;76190.38;;;-142.66;65.54
11468;BME280;5790;42.762;23.430;2024-01-30T00:48:57;76180.16;;;-142.66;65.32
11468;BME280;5790;42.762;23.430;2024-01-30T00:51:24;76163.81;;;-142.66;64.63
11468;BME280;5790;42.762;23.430;2024-01-30T00:53:51;76149.50;;;-142.66;64.08
11468;BME280;5790;42.762;23.430;2024-01-30T00:56:19;76171.97;;;-142.66;64.32
11468;BME280;5790;42.762;23.430;2024-01-30T00:58:47;76188.31;;;-142.66;63.65
11468;BME280;5790;42.762;23.430;2024-01-30T01:01:15;76176.06;;;-142.66;63.43
11468;BME280;5790;42.762;23.430;2024-01-30T01:03:42;76165.84;;;-142.66;63.49
11468;BME280;5790;42.762;23.430;2024-01-30T01:06:10;76163.81;;;-142.66;63.89
11468;BME280;5790;42.762;23.430;2024-01-30T01:08:37;76178.13;;;-142.66;63.32
11468;BME280;5790;42.762;23.430;2024-01-30T01:11:04;76182.19;;;-142.66;64.16
11468;BME280;5790;42.762;23.430;2024-01-30T01:13:31;76194.47;;;-142.66;64.92
11468;BME280;5790;42.762;23.430;2024-01-30T01:15:59;76221.00;;;-142.66;66.04
11468;BME280;5790;42.762;23.430;2024-01-30T01:18:26;76223.06;;;-142.66;65.81
11468;BME280;5790;42.762;23.430;2024-01-30T01:20:53;76227.16;;;-142.66;66.71
11468;BME280;5790;42.762;23.430;2024-01-30T01:23:21;76212.84;;;-142.66;66.17
11468;BME280;5790;42.762;23.430;2024-01-30T01:25:48;76212.84;;;-142.66;66.40
11468;BME280;5790;42.762;23.430;2024-01-30T01:28:15;76204.66;;;-142.66;67.05
11468;BME280;5790;42.762;23.430;2024-01-30T01:30:42;76210.81;;;-142.66;67.29
11468;BME280;5790;42.762;23.430;2024-01-30T01:33:10;76221.00;;;-142.66;67.49
11468;BME280;5790;42.762;23.430;2024-01-30T01:35:39;76227.16;;;-142.66;67.61
11468;BME280;5790;42.762;23.430;2024-01-30T01:38:06;76221.00;;;-142.66;67.65
11468;BME280;5790;42.762;23.430;2024-01-30T01:40:33;76229.19;;;-142.66;67.95
11468;BME280;5790;42.762;23.430;2024-01-30T01:43:03;76239.41;;;-142.66;67.75
11468;BME280;5790;42.762;23.430;2024-01-30T01:45:30;76249.63;;;-142.66;67.05
11468;BME280;5790;42.762;23.430;2024-01-30T01:47:57;76247.56;;;-142.66;66.61
11468;BME280;5790;42.762;23.430;2024-01-30T01:50:26;76251.66;;;-142.66;65.89
11468;BME280;5790;42.762;23.430;2024-01-30T01:52:54;76255.75;;;-142.66;66.41
11468;BME280;5790;42.762;23.430;2024-01-30T01:55:22;76245.53;;;-142.66;66.01
11468;BME280;5790;42.762;23.430;2024-01-30T01:57:52;76270.06;;;-142.66;66.52
11468;BME280;5790;42.762;23.430;2024-01-30T02:00:20;76253.69;;;-142.66;66.14
11468;BME280;5790;42.762;23.430;2024-01-30T02:02:47;76259.84;;;-142.66;66.08
11468;BME280;5790;42.762;23.430;2024-01-30T02:05:15;76263.91;;;-142.66;66.17
11468;BME280;5790;42.762;23.430;2024-01-30T02:07:44;76255.75;;;-142.66;65.82
11468;BME280;5790;42.762;23.430;2024-01-30T02:10:11;76265.97;;;-142.66;65.91
11468;BME280;5790;42.762;23.430;2024-01-30T02:12:38;76257.78;;;-142.66;65.62
11468;BME280;5790;42.762;23.430;2024-01-30T02:15:06;76245.53;;;-142.66;65.64
11468;BME280;5790;42.762;23.430;2024-01-30T02:17:33;76231.22;;;-142.66;65.40
11468;BME280;5790;42.762;23.430;2024-01-30T02:20:00;76225.09;;;-142.66;64.88
11468;BME280;5790;42.762;23.430;2024-01-30T02:22:31;76229.19;;;-142.66;64.58
11468;BME280;5790;42.762;23.430;2024-01-30T02:24:59;76229.19;;;-142.66;65.14
11468;BME280;5790;42.762;23.430;2024-01-30T02:27:26;76221.00;;;-142.66;65.62
11468;BME280;5790;42.762;23.430;2024-01-30T02:29:53;76239.41;;;-142.66;65.99
11468;BME280;5790;42.762;23.430;2024-01-30T02:32:20;76237.34;;;-142.66;65.65
11468;BME280;5790;42.762;23.430;2024-01-30T02:34:47;76251.66;;;-142.66;65.99
11468;BME280;5790;42.762;23.430;2024-01-30T02:37:14;76265.97;;;-142.66;66.15
11468;BME280;5790;42.762;23.430;2024-01-30T02:39:43;76265.97;;;-142.66;66.49
11468;BME280;5790;42.762;23.430;2024-01-30T02:42:10;76253.69;;;-142.66;66.05
11468;BME280;5790;42.762;23.430;2024-01-30T02:44:37;76257.78;;;-142.66;66.13
11468;BME280;5790;42.762;23.430;2024-01-30T02:47:04;76253.69;;;-142.66;66.20
11468;BME280;5790;42.762;23.430;2024-01-30T02:49:31;76253.69;;;-142.66;65.75
11468;BME280;5790;42.762;23.430;2024-01-30T02:51:58;76268.00;;;-142.66;65.80
11468;BME280;5790;42.762;23.430;2024-01-30T02:54:25;76270.06;;;-142.66;65.35
11468;BME280;5790;42.762;23.430;2024-01-30T02:56:53;76274.13;;;-142.66;65.78
11468;BME280;5790;42.762;23.430;2024-01-30T02:59:20;76278.22;;;-142.66;65.86
11468;BME280;5790;42.762;23.430;2024-01-30T03:01:47;76272.09;;;-142.66;65.61
11468;BME280;5790;42.762;23.430;2024-01-30T03:04:14;76265.97;;;-142.66;65.30
11468;BME280;5790;42.762;23.430;2024-01-30T03:06:45;76268.00;;;-142.66;65.20
11468;BME280;5790;42.762;23.430;2024-01-30T03:09:12;76255.75;;;-142.66;64.48
11468;BME280;5790;42.762;23.430;2024-01-30T03:11:40;76251.66;;;-142.66;64.53
11468;BME280;5790;42.762;23.430;2024-01-30T03:14:08;76257.78;;;-142.66;64.42
11468;BME280;5790;42.762;23.430;2024-01-30T03:16:37;76280.25;;;-142.66;63.76
11468;BME280;5790;42.762;23.430;2024-01-30T03:19:06;76274.13;;;-142.66;64.22
11468;BME280;5790;42.762;23.430;2024-01-30T03:21:34;76274.13;;;-142.66;64.16
11468;BME280;5790;42.762;23.430;2024-01-30T03:24:01;76286.41;;;-142.66;64.11
11468;BME280;5790;42.762;23.430;2024-01-30T03:26:28;76284.34;;;-142.66;63.59
11468;BME280;5790;42.762;23.430;2024-01-30T03:28:55;76276.19;;;-142.66;63.88
11468;BME280;5790;42.762;23.430;2024-01-30T03:31:24;76274.13;;;-142.66;63.42
11468;BME280;5790;42.762;23.430;2024-01-30T03:33:51;76282.31;;;-142.66;64.08
11468;BME280;5790;42.762;23.430;2024-01-30T03:36:19;76294.56;;;-142.66;64.27
11468;BME280;5790;42.762;23.430;2024-01-30T03:38:46;76290.47;;;-142.66;64.02
11468;BME280;5790;42.762;23.430;2024-01-30T03:41:14;76284.34;;;-142.66;63.79
11468;BME280;5790;42.762;23.430;2024-01-30T03:43:41;76292.53;;;-142.66;63.86
11468;BME280;5790;42.762;23.430;2024-01-30T03:46:08;76294.56;;;-142.66;63.76
11468;BME280;5790;42.762;23.430;2024-01-30T03:48:36;76296.63;;;-142.66;63.66
11468;BME280;5790;42.762;23.430;2024-01-30T03:51:03;76292.53;;;-142.66;63.49
11468;BME280;5790;42.762;23.430;2024-01-30T03:53:31;76292.53;;;-142.66;63.37
11468;BME280;5790;42.762;23.430;2024-01-30T03:55:58;76288.44;;;-142.66;63.61
11468;BME280;5790;42.762;23.430;2024-01-30T03:58:25;76286.41;;;-142.66;63.21
11468;BME280;5790;42.762;23.430;2024-01-30T04:00:52;76284.34;;;-142.66;63.08
11468;BME280;5790;42.762;23.430;2024-01-30T04:03:19;76280.25;;;-142.66;63.49
11468;BME280;5790;42.762;23.430;2024-01-30T04:05:47;76284.34;;;-142.66;63.60
11468;BME280;5790;42.762;23.430;2024-01-30T04:08:14;76288.44;;;-142.66;63.63
11468;BME280;5790;42.762;23.430;2024-01-30T04:10:41;76296.63;;;-142.66;64.31
11468;BME280;5790;42.762;23.430;2024-01-30T04:13:08;76298.66;;;-142.66;64.31
11468;BME280;5790;42.762;23.430;2024-01-30T04:15:35;76294.56;;;-142.66;64.87
11468;BME280;5790;42.762;23.430;2024-01-30T04:18:03;76290.47;;;-142.66;65.40
11468;BME280;5790;42.762;23.430;2024-01-30T04:20:30;76288.44;;;-142.66;65.31
11468;BME280;5790;42.762;23.430;2024-01-30T04:22:58;76300.69;;;-142.66;64.98
11468;BME280;5790;42.762;23.430;2024-01-30T04:25:25;76302.75;;;-142.66;65.34
11468;BME280;5790;42.762;23.430;2024-01-30T04:27:52;76306.81;;;-142.66;65.32
11468;BME280;5790;42.762;23.430;2024-01-30T04:30:19;76300.69;;;-142.66;65.53
11468;BME280;5790;42.762;23.430;2024-01-30T04:32:46;76294.56;;;-142.66;65.40
11468;BME280;5790;42.762;23.430;2024-01-30T04:35:13;76298.66;;;-142.66;66.15
11468;BME280;5790;42.762;23.430;2024-01-30T04:37:40;76300.69;;;-142.66;66.07
11468;BME280;5790;42.762;23.430;2024-01-30T04:40:09;76315.00;;;-142.66;66.22
11468;BME280;5790;42.762;23.430;2024-01-30T04:42:36;76321.13;;;-142.66;66.50
11468;BME280;5790;42.762;23.430;2024-01-30T04:45:05;76319.09;;;-142.66;66.67
11468;BME280;5790;42.762;23.430;2024-01-30T04:47:32;76315.00;;;-142.66;66.33
11468;BME280;5790;42.762;23.430;2024-01-30T04:50:00;76321.13;;;-142.66;66.41
11468;BME280;5790;42.762;23.430;2024-01-30T04:52:27;76308.88;;;-142.66;66.71
11468;BME280;5790;42.762;23.430;2024-01-30T04:54:54;76319.09;;;-142.66;66.60
11468;BME280;5790;42.762;23.430;2024-01-30T04:57:22;76327.25;;;-142.66;66.57
11468;BME280;5790;42.762;23.430;2024-01-30T04:59:49;76319.09;;;-142.66;65.83
11468;BME280;5790;42.762;23.430;2024-01-30T05:02:16;76341.56;;;-142.66;64.90
11468;BME280;5790;42.762;23.430;2024-01-30T05:04:43;76341.56;;;-142.66;64.58
11468;BME280;5790;42.762;23.430;2024-01-30T05:07:10;76339.50;;;-142.66;63.82
11468;BME280;5790;42.762;23.430;2024-01-30T05:09:37;76351.78;;;-142.66;64.38
11468;BME280;5790;42.762;23.430;2024-01-30T05:12:05;76349.72;;;-142.66;64.29
11468;BME280;5790;42.762;23.430;2024-01-30T05:14:33;76343.59;;;-142.66;63.68
11468;BME280;5790;42.762;23.430;2024-01-30T05:17:00;76337.47;;;-142.66;62.79
11468;BME280;5790;42.762;23.430;2024-01-30T05:19:28;76333.38;;;-142.66;62.61
11468;BME280;5790;42.762;23.430;2024-01-30T05:21:55;76327.25;;;-142.66;62.90
11468;BME280;5790;42.762;23.430;2024-01-30T05:24:23;76339.50;;;-142.66;63.32
11468;BME280;5790;42.762;23.430;2024-01-30T05:26:50;76343.59;;;-142.66;62.68
11468;BME280;5790;42.762;23.430;2024-01-30T05:29:17;76351.78;;;-142.66;62.64
11468;BME280;5790;42.762;23.430;2024-01-30T05:31:45;76370.16;;;-142.66;62.10
11468;BME280;5790;42.762;23.430;2024-01-30T05:34:12;76370.16;;;-142.66;62.27
11468;BME280;5790;42.762;23.430;2024-01-30T05:36:39;76362.00;;;-142.66;62.48
11468;BME280;5790;42.762;23.430;2024-01-30T05:39:07;76370.16;;;-142.66;62.13
11468;BME280;5790;42.762;23.430;2024-01-30T05:41:34;76372.22;;;-142.66;62.29
11468;BME280;5790;42.762;23.430;2024-01-30T05:44:01;76372.22;;;-142.66;61.93
11468;BME280;5790;42.762;23.430;2024-01-30T05:46:28;76374.25;;;-142.66;61.96
11468;BME280;5790;42.762;23.430;2024-01-30T05:48:56;76384.47;;;-142.66;61.96
11468;BME280;5790;42.762;23.430;2024-01-30T05:51:23;76376.28;;;-142.66;61.97
11468;BME280;5790;42.762;23.430;2024-01-30T05:53:50;76362.00;;;-142.66;61.56
11468;BME280;5790;42.762;23.430;2024-01-30T05:56:18;76351.78;;;-142.66;61.52
11468;BME280;5790;42.762;23.430;2024-01-30T05:58:44;76335.44;;;-142.66;61.56
11468;BME280;5790;42.762;23.430;2024-01-30T06:01:11;76335.44;;;-142.66;61.18
11468;BME280;5790;42.762;23.430;2024-01-30T06:03:38;76349.72;;;-142.66;61.36
11468;BME280;5790;42.762;23.430;2024-01-30T06:06:06;76341.56;;;-142.66;61.17
11468;BME280;5790;42.762;23.430;2024-01-30T06:08:33;76355.84;;;-142.66;61.48
11468;BME280;5790;42.762;23.430;2024-01-30T06:11:01;76357.91;;;-142.66;61.54
11468;BME280;5790;42.762;23.430;2024-01-30T06:13:28;76353.81;;;-142.66;62.27
11468;BME280;5790;42.762;23.430;2024-01-30T06:15:57;76351.78;;;-142.66;62.39
11468;BME280;5790;42.762;23.430;2024-01-30T06:18:24;76339.50;;;-142.66;62.02
11468;BME280;5790;42.762;23.430;2024-01-30T06:20:52;76325.22;;;-142.66;61.61
11468;BME280;5790;42.762;23.430;2024-01-30T06:23:21;76310.91;;;-142.66;61.33
11468;BME280;5790;42.762;23.430;2024-01-30T06:25:48;76298.66;;;-142.66;61.54
11468;BME280;5790;42.762;23.430;2024-01-30T06:28:15;76278.22;;;-142.66;61.18
11468;BME280;5790;42.762;23.430;2024-01-30T06:30:42;76282.31;;;-142.66;61.15
11468;BME280;5790;42.762;23.430;2024-01-30T06:33:11;76294.56;;;-142.66;60.10
11468;BME280;5790;42.762;23.430;2024-01-30T06:35:38;76288.44;;;-142.66;60.90
11468;BME280;5790;42.762;23.430;2024-01-30T06:38:06;76274.13;;;-142.66;60.45
11468;BME280;5790;42.762;23.430;2024-01-30T06:40:34;76265.97;;;-142.66;59.38
11468;BME280;5790;42.762;23.430;2024-01-30T06:43:02;76261.88;;;-142.66;58.53
11468;BME280;5790;42.762;23.430;2024-01-30T06:45:29;76243.50;;;-142.66;59.03
11468;BME280;5790;42.762;23.430;2024-01-30T06:47:56;76233.28;;;-142.66;59.74
11468;BME280;5790;42.762;23.430;2024-01-30T06:50:24;76221.00;;;-142.66;60.09
11468;BME280;5790;42.762;23.430;2024-01-30T06:52:51;76208.75;;;-142.66;59.46
11468;BME280;5790;42.762;23.430;2024-01-30T06:55:18;76216.94;;;-142.66;60.97
11468;BME280;5790;42.762;23.430;2024-01-30T06:57:46;76204.66;;;-142.66;59.91
11468;BME280;5790;42.762;23.430;2024-01-30T07:00:14;76208.75;;;-142.66;56.65
11468;BME280;5790;42.762;23.430;2024-01-30T07:02:44;76210.81;;;-142.66;56.29
11468;BME280;5790;42.762;23.430;2024-01-30T07:05:11;76192.41;;;-142.66;56.00
11468;BME280;5790;42.762;23.430;2024-01-30T07:07:38;76198.53;;;-142.66;55.33
11468;BME280;5790;42.762;23.430;2024-01-30T07:10:07;76196.50;;;-142.66;56.00
11468;BME280;5790;42.762;23.430;2024-01-30T07:12:34;76192.41;;;-142.66;55.49
11468;BME280;5790;42.762;23.430;2024-01-30T07:15:03;76194.47;;;-142.66;57.17
11468;BME280;5790;42.762;23.430;2024-01-30T07:17:30;76212.84;;;-142.66;57.76
11468;BME280;5790;42.762;23.430;2024-01-30T07:19:58;76208.75;;;-142.66;59.22
11468;BME280;5790;42.762;23.430;2024-01-30T07:22:25;76216.94;;;-142.66;62.21
11468;BME280;5790;42.762;23.430;2024-01-30T07:24:52;76218.97;;;-142.66;62.34
11468;BME280;5790;42.762;23.430;2024-01-30T07:27:19;76212.84;;;-142.66;64.89
11468;BME280;5790;42.762;23.430;2024-01-30T07:29:47;76214.88;;;-142.66;66.15
11468;BME280;5790;42.762;23.430;2024-01-30T07:32:15;76216.94;;;-142.66;64.42
11468;BME280;5790;42.762;23.430;2024-01-30T07:34:42;76188.31;;;-142.66;62.74
11468;BME280;5790;42.762;23.430;2024-01-30T07:37:10;76171.97;;;-142.66;62.65
11468;BME280;5790;42.762;23.430;2024-01-30T07:39:40;76137.25;;;-142.66;61.38
11468;BME280;5790;42.762;23.430;2024-01-30T07:42:08;76122.94;;;-142.66;58.26
11468;BME280;5790;42.762;23.430;2024-01-30T07:44:35;76120.91;;;-142.66;57.00
11468;BME280;5790;42.762;23.430;2024-01-30T07:47:02;76090.25;;;-142.66;55.70
11468;BME280;5790;42.762;23.430;2024-01-30T07:49:32;76096.38;;;-142.66;55.55
11468;BME280;5790;42.762;23.430;2024-01-30T07:52:01;76102.53;;;-142.66;56.63
11468;BME280;5790;42.762;23.430;2024-01-30T07:54:31;76061.66;;;-142.66;55.44
11468;BME280;5790;42.762;23.430;2024-01-30T07:56:59;76059.63;;;-142.66;54.49
11468;BME280;5790;42.762;23.430;2024-01-30T07:59:26;76061.66;;;-142.66;55.12
11468;BME280;5790;42.762;23.430;2024-01-30T08:01:53;76053.50;;;-142.66;53.89
11468;BME280;5790;42.762;23.430;2024-01-30T08:04:20;76018.75;;;-142.66;53.94
11468;BME280;5790;42.762;23.430;2024-01-30T08:06:48;76004.47;;;-142.66;51.87
11468;BME280;5790;42.762;23.430;2024-01-30T08:09:15;76028.97;;;-142.66;52.98
11468;BME280;5790;42.762;23.430;2024-01-30T08:11:42;76051.44;;;-142.66;52.21
11468;BME280;5790;42.762;23.430;2024-01-30T08:14:09;76059.63;;;-142.66;54.17
11468;BME280;5790;42.762;23.430;2024-01-30T08:16:36;76096.38;;;-142.66;53.93
11468;BME280;5790;42.762;23.430;2024-01-30T08:19:03;76108.66;;;-142.66;54.81
11468;BME280;5790;42.762;23.430;2024-01-30T08:21:30;76104.56;;;-142.66;54.90
11468;BME280;5790;42.762;23.430;2024-01-30T08:24:03;76118.88;;;-142.66;55.74
11468;BME280;5790;42.762;23.430;2024-01-30T08:26:31;76110.69;;;-142.66;55.63
11468;BME280;5790;42.762;23.430;2024-01-30T08:28:58;76106.59;;;-142.66;56.51
11468;BME280;5790;42.762;23.430;2024-01-30T08:31:26;76100.47;;;-142.66;56.91
11468;BME280;5790;42.762;23.430;2024-01-30T08:33:53;76100.47;;;-142.66;56.39
11468;BME280;5790;42.762;23.430;2024-01-30T08:36:20;76118.88;;;-142.66;56.13
11468;BME280;5790;42.762;23.430;2024-01-30T08:38:47;76143.38;;;-142.66;57.68
11468;BME280;5790;42.762;23.430;2024-01-30T08:41:16;76149.50;;;-142.66;59.34
11468;BME280;5790;42.762;23.430;2024-01-30T08:43:43;76122.94;;;-142.66;59.64
11468;BME280;5790;42.762;23.430;2024-01-30T08:46:10;76131.13;;;-142.66;58.23
11468;BME280;5790;42.762;23.430;2024-01-30T08:48:38;76151.56;;;-142.66;59.15
11468;BME280;5790;42.762;23.430;2024-01-30T08:51:05;76174.03;;;-142.66;59.08
11468;BME280;5790;42.762;23.430;2024-01-30T08:53:34;76169.94;;;-142.66;59.13
11468;BME280;5790;42.762;23.430;2024-01-30T08:56:02;76159.72;;;-142.66;59.44
11468;BME280;5790;42.762;23.430;2024-01-30T08:58:30;76145.41;;;-142.66;59.31
11468;BME280;5790;42.762;23.430;2024-01-30T09:00:58;76165.84;;;-142.66;58.17
11468;BME280;5790;42.762;23.430;2024-01-30T09:03:25;76147.47;;;-142.66;58.87
11468;BME280;5790;42.762;23.430;2024-01-30T09:05:53;76147.47;;;-142.66;59.32
11468;BME280;5790;42.762;23.430;2024-01-30T09:08:20;76163.81;;;-142.66;58.53
11468;BME280;5790;42.762;23.430;2024-01-30T09:10:47;76167.91;;;-142.66;59.43
11468;BME280;5790;42.762;23.430;2024-01-30T09:13:15;76169.94;;;-142.66;60.27
11468;BME280;5790;42.762;23.430;2024-01-30T09:15:43;76157.69;;;-142.66;59.55
11468;BME280;5790;42.762;23.430;2024-01-30T09:18:10;76151.56;;;-142.66;59.36
11468;BME280;5790;42.762;23.430;2024-01-30T09:20:37;76147.47;;;-142.66;58.46
11468;BME280;5790;42.762;23.430;2024-01-30T09:23:04;76151.56;;;-142.66;58.96
11468;BME280;5790;42.762;23.430;2024-01-30T09:25:32;76157.69;;;-142.66;59.24
11468;BME280;5790;42.762;23.430;2024-01-30T09:27:59;76176.06;;;-142.66;58.75
11468;BME280;5790;42.762;23.430;2024-01-30T09:30:27;76174.03;;;-142.66;59.68
11468;BME280;5790;42.762;23.430;2024-01-30T09:32:55;76167.91;;;-142.66;58.95
11468;BME280;5790;42.762;23.430;2024-01-30T09:35:22;76163.81;;;-142.66;58.13
11468;BME280;5790;42.762;23.430;2024-01-30T09:37:49;76161.75;;;-142.66;57.75
11468;BME280;5790;42.762;23.430;2024-01-30T09:40:17;76167.91;;;-142.66;58.25
11468;BME280;5790;42.762;23.430;2024-01-30T09:42:46;76161.75;;;-142.66;59.23
11468;BME280;5790;42.762;23.430;2024-01-30T09:45:14;76155.63;;;-142.66;59.24
11468;BME280;5790;42.762;23.430;2024-01-30T09:47:43;76139.28;;;-142.66;57.30
11468;BME280;5790;42.762;23.430;2024-01-30T09:50:13;76149.50;;;-142.66;55.96
11468;BME280;5790;42.762;23.430;2024-01-30T09:52:41;76141.34;;;-142.66;55.96
11468;BME280;5790;42.762;23.430;2024-01-30T09:55:09;76139.28;;;-142.66;56.76
11468;BME280;5790;42.762;23.430;2024-01-30T09:57:37;76137.25;;;-142.66;56.07
11468;BME280;5790;42.762;23.430;2024-01-30T10:00:05;76122.94;;;-142.66;56.08
11468;BME280;5790;42.762;23.430;2024-01-30T10:02:34;76116.81;;;-142.66;56.04
11468;BME280;5790;42.762;23.430;2024-01-30T10:05:02;76102.53;;;-142.66;55.15
11468;BME280;5790;42.762;23.430;2024-01-30T10:07:30;76112.72;;;-142.66;55.99
11468;BME280;5790;42.762;23.430;2024-01-30T10:09:57;76122.94;;;-142.66;56.18
11468;BME280;5790;42.762;23.430;2024-01-30T10:12:26;76137.25;;;-142.66;55.06
11468;BME280;5790;42.762;23.430;2024-01-30T10:14:53;76139.28;;;-142.66;55.79
11468;BME280;5790;42.762;23.430;2024-01-30T10:17:20;76129.09;;;-142.66;57.29
11468;BME280;5790;42.762;23.430;2024-01-30T10:19:47;76149.50;;;-142.66;56.60
11468;BME280;5790;42.762;23.430;2024-01-30T10:22:14;76163.81;;;-142.66;57.07
11468;BME280;5790;42.762;23.430;2024-01-30T10:24:43;76149.50;;;-142.66;57.03
11468;BME280;5790;42.762;23.430;2024-01-30T10:27:11;76143.38;;;-142.66;57.27
11468;BME280;5790;42.762;23.430;2024-01-30T10:29:38;76125.00;;;-142.66;56.95
11468;BME280;5790;42.762;23.430;2024-01-30T10:32:05;76096.38;;;-142.66;57.90
11468;BME280;5790;42.762;23.430;2024-01-30T10:34:32;76080.03;;;-142.66;56.10
11468;BME280;5790;42.762;23.430;2024-01-30T10:37:07;76098.44;;;-142.66;55.71
11468;BME280;5790;42.762;23.430;2024-01-30T10:39:38;76106.59;;;-142.66;55.16
11468;BME280;5790;42.762;23.430;2024-01-30T10:42:11;76104.56;;;-142.66;55.49
11468;BME280;5790;42.762;23.430;2024-01-30T10:44:46;76102.53;;;-142.66;55.86
11468;BME280;5790;42.762;23.430;2024-01-30T10:47:19;76086.19;;;-142.66;56.46
11468;BME280;5790;42.762;23.430;2024-01-30T10:49:49;76051.44;;;-142.66;56.67
11468;BME280;5790;42.762;23.430;2024-01-30T10:52:16;76041.22;;;-142.66;55.03
11468;BME280;5790;42.762;23.430;2024-01-30T10:54:44;76031.03;;;-142.66;54.61
11468;BME280;5790;42.762;23.430;2024-01-30T10:57:15;76018.75;;;-142.66;56.22
11468;BME280;5790;42.762;23.430;2024-01-30T10:59:43;76002.41;;;-142.66;53.65
11468;BME280;5790;42.762;23.430;2024-01-30T11:02:11;76002.41;;;-142.66;51.76
11468;BME280;5790;42.762;23.430;2024-01-30T11:04:41;75988.13;;;-142.66;51.55
11468;BME280;5790;42.762;23.430;2024-01-30T11:07:14;76000.38;;;-142.66;52.81
11468;BME280;5790;42.762;23.430;2024-01-30T11:09:48;75994.25;;;-142.66;53.59
11468;BME280;5790;42.762;23.430;2024-01-30T11:12:21;75988.13;;;-142.66;53.38
11468;BME280;5790;42.762;23.430;2024-01-30T11:14:48;75992.19;;;-142.66;54.40
11468;BME280;5790;42.762;23.430;2024-01-30T11:17:16;76014.66;;;-142.66;54.64
11468;BME280;5790;42.762;23.430;2024-01-30T11:19:43;76014.66;;;-142.66;55.01
11468;BME280;5790;42.762;23.430;2024-01-30T11:22:10;76000.38;;;-142.66;55.15
11468;BME280;5790;42.762;23.430;2024-01-30T11:24:39;76000.38;;;-142.66;54.63
11468;BME280;5790;42.762;23.430;2024-01-30T11:27:08;76000.38;;;-142.66;55.31
11468;BME280;5790;42.762;23.430;2024-01-30T11:29:37;76008.53;;;-142.66;54.81
11468;BME280;5790;42.762;23.430;2024-01-30T11:32:05;76000.38;;;-142.66;56.59
11468;BME280;5790;42.762;23.430;2024-01-30T11:34:33;75988.13;;;-142.66;54.41
11468;BME280;5790;42.762;23.430;2024-01-30T11:37:03;75965.63;;;-142.66;55.05
11468;BME280;5790;42.762;23.430;2024-01-30T11:39:32;75969.72;;;-142.66;54.27
11468;BME280;5790;42.762;23.430;2024-01-30T11:41:59;75973.81;;;-142.66;54.29
11468;BME280;5790;42.762;23.430;2024-01-30T11:44:26;75986.06;;;-142.66;54.40
11468;BME280;5790;42.762;23.430;2024-01-30T11:46:56;75969.72;;;-142.66;53.88
11468;BME280;5790;42.762;23.430;2024-01-30T11:49:23;75959.50;;;-142.66;54.03
11468;BME280;5790;42.762;23.430;2024-01-30T11:51:50;75957.47;;;-142.66;54.50
11468;BME280;5790;42.762;23.430;2024-01-30T11:54:18;75945.22;;;-142.66;53.87
11468;BME280;5790;42.762;23.430;2024-01-30T11:56:46;75973.81;;;-142.66;53.47
11468;BME280;5790;42.762;23.430;2024-01-30T11:59:14;75975.84;;;-142.66;53.98
11468;BME280;5790;42.762;23.430;2024-01-30T12:01:41;75975.84;;;-142.66;53.83
11468;BME280;5790;42.762;23.430;2024-01-30T12:04:09;75959.50;;;-142.66;54.06
11468;BME280;5790;42.762;23.430;2024-01-30T12:06:37;75947.25;;;-142.66;53.58
11468;BME280;5790;42.762;23.430;2024-01-30T12:09:05;75926.81;;;-142.66;53.22
11468;BME280;5790;42.762;23.430;2024-01-30T12:11:43;75914.56;;;-142.66;53.30
11468;BME280;5790;42.762;23.430;2024-01-30T12:14:12;75928.88;;;-142.66;53.46
11468;BME280;5790;42.762;23.430;2024-01-30T12:16:39;75924.78;;;-142.66;53.68
11468;BME280;5790;42.762;23.430;2024-01-30T12:19:07;75914.56;;;-142.66;53.82
11468;BME280;5790;42.762;23.430;2024-01-30T12:21:35;75922.75;;;-142.66;53.72
11468;BME280;5790;42.762;23.430;2024-01-30T12:24:03;75922.75;;;-142.66;54.11
11468;BME280;5790;42.762;23.430;2024-01-30T12:26:30;75914.56;;;-142.66;53.62
11468;BME280;5790;42.762;23.430;2024-01-30T12:28:57;75916.63;;;-142.66;53.69
11468;BME280;5790;42.762;23.430;2024-01-30T12:31:27;75932.97;;;-142.66;54.21
11468;BME280;5790;42.762;23.430;2024-01-30T12:33:54;75918.66;;;-142.66;55.23
11468;BME280;5790;42.762;23.430;2024-01-30T12:36:22;75926.81;;;-142.66;54.87
11468;BME280;5790;42.762;23.430;2024-01-30T12:38:51;75935.00;;;-142.66;55.36
11468;BME280;5790;42.762;23.430;2024-01-30T12:41:19;75941.13;;;-142.66;55.79
11468;BME280;5790;42.762;23.430;2024-01-30T12:43:47;75932.97;;;-142.66;55.32